Time;durP1;ratioP1;P1;durP2;ratioP2;P2;SDS_P1;SDS_P2;PMS_P1;PMS_P2;Temp;Humidity;BMP_temperature;BMP_pressure;BME280_temperature;BME280_humidity;BME280_pressure;Samples;Min_cycle;Max_cycle;Signal;HPM_P1;HPM_P2
2023/08/21 00:01:01;;;;;;;1.50;1.00;;;17.60;99.90;;;;;;5053546;28;20052;-66
2023/08/21 00:03:26;;;;;;;3.05;1.30;;;17.60;99.90;;;;;;5053689;28;20597;-66
2023/08/21 00:05:52;;;;;;;3.05;1.40;;;17.50;99.90;;;;;;5053668;28;20080;-66
2023/08/21 00:08:17;;;;;;;2.88;1.50;;;17.40;99.90;;;;;;5053703;28;20064;-66
2023/08/21 00:10:43;;;;;;;4.55;1.73;;;17.30;99.90;;;;;;5052969;28;20036;-66
2023/08/21 00:13:09;;;;;;;9.73;2.83;;;17.30;99.90;;;;;;5052826;28;20041;-66
2023/08/21 00:15:35;;;;;;;3.78;1.52;;;17.30;99.90;;;;;;5053428;28;20041;-66
2023/08/21 00:18:01;;;;;;;2.58;1.80;;;17.20;99.90;;;;;;5051293;28;20123;-66
2023/08/21 00:20:26;;;;;;;6.18;1.90;;;17.20;99.90;;;;;;5053289;28;20112;-66
2023/08/21 00:22:52;;;;;;;6.72;2.45;;;17.20;99.90;;;;;;5051913;28;20090;-66
2023/08/21 00:25:18;;;;;;;3.95;2.00;;;17.20;99.90;;;;;;5052633;28;20376;-66
2023/08/21 00:27:43;;;;;;;4.15;1.70;;;17.20;99.90;;;;;;5052605;28;20124;-66
2023/08/21 00:30:10;;;;;;;2.83;1.65;;;17.20;99.90;;;;;;5052854;28;20581;-66
2023/08/21 00:32:35;;;;;;;2.15;1.40;;;17.20;99.90;;;;;;5053177;28;20039;-66
2023/08/21 00:35:01;;;;;;;3.05;1.80;;;17.10;99.90;;;;;;5052473;28;20485;-66
2023/08/21 00:37:27;;;;;;;2.92;1.33;;;17.20;99.90;;;;;;5052764;28;20041;-66
2023/08/21 00:39:52;;;;;;;4.47;1.60;;;17.20;99.90;;;;;;5052797;28;20037;-68
2023/08/21 00:42:18;;;;;;;4.03;1.50;;;17.10;99.90;;;;;;5065066;22;20048;-67
2023/08/21 00:44:43;;;;;;;3.03;1.60;;;17.10;99.90;;;;;;5052044;28;20068;-66
2023/08/21 00:47:09;;;;;;;2.38;1.75;;;17.10;99.90;;;;;;5052608;28;20045;-66
2023/08/21 00:49:35;;;;;;;3.35;1.30;;;17.10;99.90;;;;;;5052104;28;20036;-66
2023/08/21 00:52:01;;;;;;;5.30;2.05;;;17.10;99.90;;;;;;5069246;28;20045;-67
2023/08/21 00:54:27;;;;;;;3.08;1.75;;;17.10;99.90;;;;;;5072245;28;20068;-67
2023/08/21 00:56:53;;;;;;;5.20;2.25;;;17.00;99.90;;;;;;5072467;28;20063;-67
2023/08/21 00:59:20;;;;;;;3.58;1.90;;;17.00;99.90;;;;;;5072789;28;20558;-66
2023/08/21 01:01:46;;;;;;;5.40;2.03;;;17.00;99.90;;;;;;5072447;28;20049;-66
2023/08/21 01:04:11;;;;;;;3.65;1.58;;;16.90;99.90;;;;;;5072392;28;20044;-67
2023/08/21 01:06:37;;;;;;;3.35;1.50;;;16.90;99.90;;;;;;5072407;28;20044;-66
2023/08/21 01:09:31;;;;;;;1.80;1.35;;;16.90;99.90;;;;;;5072478;28;20032;-66
2023/08/21 01:12:18;;;;;;;2.45;1.50;;;16.90;99.90;;;;;;5072076;28;20063;-66
2023/08/21 01:15:02;;;;;;;2.45;1.60;;;16.90;99.90;;;;;;5072180;28;20044;-66
2023/08/21 01:17:29;;;;;;;3.75;1.70;;;16.90;99.90;;;;;;5072295;28;20036;-66
2023/08/21 01:19:56;;;;;;;3.42;1.55;;;16.80;99.90;;;;;;5072239;28;20107;-67
2023/08/21 01:22:39;;;;;;;3.00;1.55;;;16.80;99.90;;;;;;5070773;28;20641;-66
2023/08/21 01:25:06;;;;;;;4.47;1.70;;;16.80;99.90;;;;;;5071738;28;20036;-67
2023/08/21 01:27:33;;;;;;;5.45;1.58;;;16.70;99.90;;;;;;5071366;28;20041;-67
2023/08/21 01:30:00;;;;;;;1.95;1.60;;;16.60;99.90;;;;;;5070866;28;20048;-67
2023/08/21 01:32:58;;;;;;;2.92;1.30;;;16.60;99.90;;;;;;5071898;28;20040;-67
2023/08/21 01:35:25;;;;;;;3.58;0.98;;;16.60;99.90;;;;;;5070847;28;20397;-67
2023/08/21 01:37:51;;;;;;;2.70;1.42;;;16.50;99.90;;;;;;5072100;28;20036;-67
2023/08/21 01:40:22;;;;;;;1.95;1.73;;;16.50;99.90;;;;;;5071548;28;20039;-66
2023/08/21 01:42:47;;;;;;;1.70;1.40;;;16.40;99.90;;;;;;5070416;28;20398;-66
2023/08/21 01:45:13;;;;;;;3.05;1.80;;;16.40;99.90;;;;;;5071861;28;20040;-67
2023/08/21 01:47:38;;;;;;;2.80;1.48;;;16.40;99.90;;;;;;5071973;28;20033;-67
2023/08/21 01:50:05;;;;;;;2.05;1.30;;;16.40;99.90;;;;;;5071931;28;20490;-66
2023/08/21 01:52:30;;;;;;;2.65;1.52;;;16.30;99.90;;;;;;5071893;28;20032;-66
2023/08/21 01:54:56;;;;;;;2.95;1.55;;;16.30;99.90;;;;;;5071613;28;20116;-67
2023/08/21 01:57:22;;;;;;;1.83;1.40;;;16.30;99.90;;;;;;5071721;28;20032;-67
2023/08/21 01:59:48;;;;;;;2.55;1.88;;;16.40;99.90;;;;;;5071533;28;20052;-67
2023/08/21 02:02:36;;;;;;;4.82;1.65;;;16.40;99.90;;;;;;5074833;28;20370;-66
2023/08/21 02:05:03;;;;;;;2.67;1.60;;;16.40;99.90;;;;;;5081247;28;20111;-66
2023/08/21 02:07:28;;;;;;;2.15;1.40;;;16.40;99.90;;;;;;5090451;28;20040;-66
2023/08/21 02:09:54;;;;;;;4.35;1.70;;;16.30;99.90;;;;;;5091768;28;20063;-67
2023/08/21 02:12:20;;;;;;;1.88;1.40;;;16.30;99.90;;;;;;5087451;28;20033;-67
2023/08/21 02:14:45;;;;;;;1.67;1.40;;;16.30;99.90;;;;;;5071140;28;20127;-66
2023/08/21 02:17:11;;;;;;;2.20;1.80;;;16.40;99.90;;;;;;5069908;28;20040;-66
2023/08/21 02:19:36;;;;;;;2.17;1.50;;;16.30;99.90;;;;;;5071350;28;20098;-66
2023/08/21 02:22:02;;;;;;;1.35;1.20;;;16.30;99.90;;;;;;5071449;28;20075;-67
2023/08/21 02:24:27;;;;;;;1.48;1.38;;;16.20;99.90;;;;;;5071129;28;20119;-67
2023/08/21 02:26:53;;;;;;;2.45;1.65;;;16.10;99.90;;;;;;5071381;28;20480;-66
2023/08/21 02:29:19;;;;;;;1.75;1.30;;;16.10;99.90;;;;;;5069797;28;20036;-67
2023/08/21 02:31:44;;;;;;;1.70;1.38;;;16.10;99.90;;;;;;5071431;28;20041;-67
2023/08/21 02:34:10;;;;;;;1.90;1.45;;;16.00;99.90;;;;;;5070857;28;20363;-66
2023/08/21 02:36:35;;;;;;;2.17;1.60;;;16.00;99.90;;;;;;5071494;28;20086;-66
2023/08/21 02:39:01;;;;;;;3.83;1.60;;;15.90;99.90;;;;;;5070904;28;20428;-67
2023/08/21 02:41:27;;;;;;;3.75;1.15;;;15.90;99.90;;;;;;5071247;28;20033;-67
2023/08/21 02:43:52;;;;;;;1.10;1.00;;;15.90;99.90;;;;;;5071177;28;20048;-67
2023/08/21 02:46:18;;;;;;;1.80;1.02;;;15.90;99.90;;;;;;5071393;28;20040;-66
2023/08/21 02:48:43;;;;;;;3.10;1.33;;;15.90;99.90;;;;;;5071397;28;20035;-67
2023/08/21 02:51:09;;;;;;;2.65;1.20;;;15.80;99.90;;;;;;5070331;28;20058;-66
2023/08/21 02:53:35;;;;;;;2.97;1.52;;;15.80;99.90;;;;;;5073448;28;20033;-66
2023/08/21 02:56:00;;;;;;;1.98;1.45;;;15.70;99.90;;;;;;5075211;28;20123;-67
2023/08/21 02:58:26;;;;;;;1.85;1.35;;;15.70;99.90;;;;;;5075024;28;20043;-66
2023/08/21 03:00:51;;;;;;;1.48;1.23;;;15.70;99.90;;;;;;5074958;28;20036;-66
2023/08/21 03:03:17;;;;;;;1.83;1.30;;;15.70;99.90;;;;;;5074714;28;20391;-66
2023/08/21 03:05:42;;;;;;;1.65;1.40;;;15.60;99.90;;;;;;5074541;28;20048;-66
2023/08/21 03:08:08;;;;;;;2.38;1.40;;;15.50;99.90;;;;;;5074561;28;20482;-67
2023/08/21 03:10:34;;;;;;;3.17;1.70;;;15.50;99.90;;;;;;5074843;28;20086;-67
2023/08/21 03:13:00;;;;;;;3.22;1.55;;;15.60;99.90;;;;;;5074570;28;20481;-66
2023/08/21 03:15:26;;;;;;;4.78;2.30;;;15.60;99.90;;;;;;5074536;28;20056;-66
2023/08/21 03:17:51;;;;;;;2.00;1.50;;;15.60;99.90;;;;;;5074649;28;20059;-67
2023/08/21 03:20:19;;;;;;;2.72;1.60;;;15.60;99.90;;;;;;5074488;28;20059;-67
2023/08/21 03:22:45;;;;;;;3.80;1.70;;;15.60;99.90;;;;;;5074227;28;20487;-66
2023/08/21 03:25:11;;;;;;;2.25;1.38;;;15.60;99.90;;;;;;5074123;28;20541;-66
2023/08/21 03:27:39;;;;;;;1.60;1.27;;;15.50;99.90;;;;;;5074480;28;20159;-66
2023/08/21 03:30:08;;;;;;;1.98;1.20;;;15.50;99.90;;;;;;5074359;28;20040;-66
2023/08/21 03:32:34;;;;;;;2.92;1.48;;;15.40;99.90;;;;;;5073067;28;20505;-66
2023/08/21 03:34:59;;;;;;;1.98;1.23;;;15.40;99.90;;;;;;5073985;28;20040;-66
2023/08/21 03:37:25;;;;;;;1.70;1.20;;;15.40;99.90;;;;;;5074131;28;20062;-66
2023/08/21 03:39:51;;;;;;;1.40;1.10;;;15.30;99.90;;;;;;5074302;28;20072;-67
2023/08/21 03:42:16;;;;;;;1.60;1.30;;;15.20;99.90;;;;;;5073725;28;20036;-66
2023/08/21 03:44:42;;;;;;;4.75;1.45;;;15.20;99.90;;;;;;5073944;28;20118;-67
2023/08/21 03:47:08;;;;;;;2.20;1.10;;;15.20;99.90;;;;;;5074022;28;20036;-66
2023/08/21 03:49:33;;;;;;;1.90;0.80;;;15.20;99.90;;;;;;5074043;28;20553;-66
2023/08/21 03:51:59;;;;;;;2.58;1.27;;;15.30;99.90;;;;;;5073204;28;20032;-66
2023/08/21 03:54:24;;;;;;;2.55;1.38;;;15.20;99.90;;;;;;5073552;28;20036;-66
2023/08/21 03:56:50;;;;;;;2.72;1.20;;;15.20;99.90;;;;;;5074014;28;20040;-66
2023/08/21 03:59:15;;;;;;;3.42;1.45;;;15.10;99.90;;;;;;5073873;28;20068;-67
2023/08/21 04:01:41;;;;;;;2.58;1.42;;;15.10;99.90;;;;;;5074850;28;20506;-66
2023/08/21 04:04:07;;;;;;;5.63;1.40;;;15.10;99.90;;;;;;5074695;28;20036;-66
2023/08/21 04:06:32;;;;;;;2.85;1.58;;;15.10;99.90;;;;;;5072340;28;20486;-66
2023/08/21 04:08:58;;;;;;;1.40;1.30;;;15.10;99.90;;;;;;5073758;28;20036;-66
2023/08/21 04:11:23;;;;;;;2.33;1.50;;;15.10;99.90;;;;;;5073653;28;20122;-66
2023/08/21 04:13:49;;;;;;;1.92;1.17;;;15.10;99.90;;;;;;5073104;28;20041;-67
2023/08/21 04:16:17;;;;;;;1.73;1.58;;;15.10;99.90;;;;;;5073185;28;20101;-67
2023/08/21 04:18:43;;;;;;;2.30;1.50;;;15.00;99.90;;;;;;5073376;28;20048;-66
2023/08/21 04:21:09;;;;;;;1.35;1.00;;;15.00;99.90;;;;;;5071471;28;20850;-67
2023/08/21 04:23:35;;;;;;;1.23;1.00;;;15.00;99.90;;;;;;5071963;28;20078;-67
2023/08/21 04:26:02;;;;;;;1.95;1.00;;;15.00;99.90;;;;;;5072959;28;20119;-66
2023/08/21 04:28:29;;;;;;;2.88;1.33;;;15.10;99.90;;;;;;5073327;28;20040;-66
2023/08/21 04:30:57;;;;;;;4.07;1.42;;;15.00;99.90;;;;;;5071023;28;20112;-66
2023/08/21 04:33:27;;;;;;;1.42;1.30;;;15.00;99.90;;;;;;5071521;28;20509;-67
2023/08/21 04:35:53;;;;;;;2.47;1.63;;;15.00;99.90;;;;;;5073194;28;20059;-67
2023/08/21 04:38:18;;;;;;;2.42;1.00;;;15.00;99.90;;;;;;5073066;28;20566;-67
2023/08/21 04:40:44;;;;;;;1.73;1.33;;;14.90;99.90;;;;;;5072470;28;20043;-67
2023/08/21 04:43:09;;;;;;;3.10;1.40;;;14.90;99.90;;;;;;5071580;28;20481;-66
2023/08/21 04:45:37;;;;;;;1.40;1.30;;;15.00;99.90;;;;;;5072283;28;20032;-66
2023/08/21 04:48:06;;;;;;;2.47;1.35;;;15.00;99.90;;;;;;5072321;28;20047;-67
2023/08/21 04:50:31;;;;;;;3.17;1.55;;;14.90;99.90;;;;;;5072598;28;20036;-67
2023/08/21 04:52:57;;;;;;;1.95;1.30;;;14.90;99.90;;;;;;5072520;28;20093;-66
2023/08/21 04:55:23;;;;;;;4.20;1.50;;;14.90;99.90;;;;;;5072500;28;20032;-66
2023/08/21 04:57:49;;;;;;;1.73;1.45;;;14.80;99.90;;;;;;5072763;28;20040;-66
2023/08/21 05:00:15;;;;;;;3.47;1.50;;;14.90;99.90;;;;;;5072503;28;20036;-67
2023/08/21 05:02:41;;;;;;;3.47;1.50;;;14.90;99.90;;;;;;5072295;28;20625;-67
2023/08/21 05:05:08;;;;;;;2.15;1.38;;;14.80;99.90;;;;;;5071112;28;20051;-66
2023/08/21 05:07:34;;;;;;;2.40;1.52;;;14.80;99.90;;;;;;5071171;28;20174;-66
2023/08/21 05:10:00;;;;;;;3.90;1.75;;;14.90;99.90;;;;;;5072330;28;20086;-66
2023/08/21 05:12:26;;;;;;;1.50;1.20;;;14.90;99.90;;;;;;5070987;28;20036;-67
2023/08/21 05:14:52;;;;;;;2.65;1.67;;;15.00;99.90;;;;;;5070986;28;20055;-67
2023/08/21 05:17:17;;;;;;;2.60;1.30;;;15.00;99.90;;;;;;5071441;28;20036;-66
2023/08/21 05:19:43;;;;;;;2.20;1.50;;;15.00;99.90;;;;;;5072457;28;20083;-67
2023/08/21 05:22:08;;;;;;;3.97;2.00;;;15.00;99.90;;;;;;5072238;28;20036;-66
2023/08/21 05:24:34;;;;;;;3.78;2.00;;;15.00;99.90;;;;;;5072005;28;20040;-66
2023/08/21 05:26:59;;;;;;;3.92;1.98;;;15.00;99.90;;;;;;5072189;28;20098;-66
2023/08/21 05:29:25;;;;;;;2.15;1.40;;;15.00;99.90;;;;;;5072210;28;20040;-66
2023/08/21 05:31:51;;;;;;;1.80;1.55;;;15.10;99.90;;;;;;5071524;28;20111;-67
2023/08/21 05:34:16;;;;;;;4.97;2.00;;;15.10;99.90;;;;;;5071964;28;20482;-66
2023/08/21 05:36:42;;;;;;;2.58;2.08;;;15.20;99.90;;;;;;5071925;28;20043;-66
2023/08/21 05:39:08;;;;;;;3.60;1.98;;;15.20;99.90;;;;;;5071449;28;20043;-66
2023/08/21 05:41:33;;;;;;;1.70;1.60;;;15.30;99.90;;;;;;5071578;28;20119;-66
2023/08/21 05:43:59;;;;;;;3.80;2.05;;;15.40;99.90;;;;;;5071524;28;20410;-67
2023/08/21 05:46:25;;;;;;;2.22;1.55;;;15.50;99.90;;;;;;5070031;28;20036;-66
2023/08/21 05:48:50;;;;;;;2.17;1.85;;;15.50;99.90;;;;;;5072152;28;20041;-67
2023/08/21 05:51:16;;;;;;;3.55;2.00;;;15.50;99.90;;;;;;5071616;28;20029;-66
2023/08/21 05:53:41;;;;;;;2.45;1.95;;;15.60;99.90;;;;;;5071669;28;20123;-67
2023/08/21 05:56:07;;;;;;;5.05;1.90;;;15.70;99.90;;;;;;5071085;28;20044;-66
2023/08/21 05:58:32;;;;;;;2.63;2.00;;;15.70;99.90;;;;;;5070843;28;20406;-67
2023/08/21 06:00:58;;;;;;;5.43;2.60;;;15.70;99.90;;;;;;5071530;28;20082;-67
2023/08/21 06:03:24;;;;;;;4.45;2.45;;;15.80;99.90;;;;;;5071761;28;20051;-66
2023/08/21 06:05:49;;;;;;;2.58;2.30;;;15.90;99.90;;;;;;5071648;28;20035;-66
2023/08/21 06:08:15;;;;;;;3.50;2.38;;;16.00;99.90;;;;;;5071857;28;20033;-66
2023/08/21 06:10:41;;;;;;;5.82;2.83;;;16.00;99.90;;;;;;5071520;28;20039;-66
2023/08/21 06:13:06;;;;;;;6.85;2.60;;;16.10;99.90;;;;;;5071509;28;20037;-66
2023/08/21 06:15:32;;;;;;;4.82;2.65;;;16.20;99.90;;;;;;5071195;28;20058;-66
2023/08/21 06:17:58;;;;;;;5.30;2.90;;;16.30;99.90;;;;;;5071806;28;20040;-66
2023/08/21 06:20:25;;;;;;;4.72;3.15;;;16.40;99.90;;;;;;5071580;28;20449;-66
2023/08/21 06:22:50;;;;;;;4.32;2.63;;;16.50;99.90;;;;;;5070488;28;20111;-66
2023/08/21 06:25:16;;;;;;;5.45;3.05;;;16.50;99.90;;;;;;5069990;28;20132;-67
2023/08/21 06:27:41;;;;;;;8.00;3.20;;;16.70;99.90;;;;;;5073161;28;20065;-66
2023/08/21 06:30:07;;;;;;;7.90;3.22;;;16.70;99.90;;;;;;5075255;28;20037;-66
2023/08/21 06:32:33;;;;;;;9.35;3.83;;;16.90;99.90;;;;;;5075615;28;20079;-66
2023/08/21 06:34:59;;;;;;;6.30;3.90;;;17.00;99.90;;;;;;5075162;28;20079;-67
2023/08/21 06:37:25;;;;;;;7.00;3.90;;;17.20;99.90;;;;;;5074953;28;20040;-66
2023/08/21 06:39:50;;;;;;;7.35;4.55;;;17.40;99.90;;;;;;5075373;28;20072;-66
2023/08/21 06:42:16;;;;;;;8.55;4.35;;;17.60;99.90;;;;;;5086833;22;20123;-66
2023/08/21 06:44:42;;;;;;;8.75;3.90;;;17.70;99.90;;;;;;5073574;28;20068;-66
2023/08/21 06:47:07;;;;;;;7.00;4.00;;;17.80;99.90;;;;;;5065279;28;20044;-66
2023/08/21 06:49:33;;;;;;;7.10;3.75;;;17.90;99.90;;;;;;5075222;28;20028;-66
2023/08/21 06:51:59;;;;;;;8.55;3.83;;;18.00;99.90;;;;;;5075048;28;20036;-66
2023/08/21 06:54:24;;;;;;;6.32;3.63;;;18.00;99.90;;;;;;5074602;28;20063;-66
2023/08/21 06:56:50;;;;;;;10.55;3.70;;;18.10;99.90;;;;;;5075014;28;20087;-66
2023/08/21 06:59:16;;;;;;;7.18;3.53;;;18.10;99.90;;;;;;5074785;28;20036;-66
2023/08/21 07:01:41;;;;;;;6.72;3.47;;;18.20;99.90;;;;;;5074876;28;20482;-66
2023/08/21 07:04:07;;;;;;;7.75;3.92;;;18.40;99.90;;;;;;5074729;28;20490;-66
2023/08/21 07:06:32;;;;;;;7.50;3.33;;;18.50;99.90;;;;;;5074906;28;20071;-66
2023/08/21 07:08:58;;;;;;;6.43;3.03;;;18.70;99.90;;;;;;5074782;28;20037;-66
2023/08/21 07:11:23;;;;;;;8.52;3.70;;;18.80;99.90;;;;;;5073897;28;20075;-66
2023/08/21 07:13:49;;;;;;;10.38;3.58;;;19.00;99.90;;;;;;5074094;28;20078;-66
2023/08/21 07:16:15;;;;;;;12.48;3.80;;;19.20;99.90;;;;;;5074861;28;20501;-66
2023/08/21 07:18:40;;;;;;;8.88;3.38;;;19.20;99.90;;;;;;5056182;28;20046;-66
2023/08/21 07:21:06;;;;;;;6.10;3.13;;;19.30;99.90;;;;;;5074244;28;20040;-66
2023/08/21 07:23:32;;;;;;;6.75;3.20;;;19.40;99.90;;;;;;5074080;28;20043;-66
2023/08/21 07:25:59;;;;;;;7.57;2.88;;;19.50;99.90;;;;;;5074328;28;20040;-65
2023/08/21 07:28:25;;;;;;;8.10;3.15;;;19.70;99.90;;;;;;5056356;28;20040;-66
2023/08/21 07:30:57;;;;;;;7.95;3.17;;;19.80;99.90;;;;;;5074464;28;20090;-66
2023/08/21 07:33:26;;;;;;;6.40;2.92;;;19.90;99.90;;;;;;5074164;28;20044;-66
2023/08/21 07:36:03;;;;;;;11.23;3.17;;;20.10;99.90;;;;;;5074183;28;20123;-66
2023/08/21 07:38:29;;;;;;;6.60;2.85;;;20.20;99.90;;;;;;5073543;28;20036;-66
2023/08/21 07:41:09;;;;;;;7.22;3.03;;;20.30;99.90;;;;;;5073635;28;20094;-66
2023/08/21 07:43:40;;;;;;;8.05;3.50;;;20.50;99.90;;;;;;5074021;28;20051;-66
2023/08/21 07:46:07;;;;;;;5.75;2.80;;;20.60;99.90;;;;;;5073243;28;20124;-66
2023/08/21 07:48:33;;;;;;;7.47;2.45;;;20.70;99.90;;;;;;5074146;28;20037;-66
2023/08/21 07:50:59;;;;;;;5.05;2.38;;;20.80;99.90;;;;;;5073369;28;20079;-66
2023/08/21 07:53:26;;;;;;;5.63;2.78;;;20.90;99.90;;;;;;5073569;28;20060;-66
2023/08/21 07:55:51;;;;;;;6.45;2.35;;;21.10;99.90;;;;;;5055400;28;20121;-66
2023/08/21 07:58:17;;;;;;;6.00;2.85;;;21.20;99.90;;;;;;5074020;28;20045;-65
2023/08/21 08:00:43;;;;;;;6.00;3.25;;;21.30;99.90;;;;;;5073742;28;20046;-66
2023/08/21 08:03:10;;;;;;;6.00;2.88;;;21.40;99.90;;;;;;5073779;28;20090;-65
2023/08/21 08:05:36;;;;;;;7.05;2.97;;;21.50;99.90;;;;;;5073406;28;20157;-66
2023/08/21 08:08:02;;;;;;;6.15;2.65;;;21.60;99.90;;;;;;5073421;28;20125;-66
2023/08/21 08:10:28;;;;;;;5.80;2.95;;;21.70;99.90;;;;;;5073785;28;20151;-66
2023/08/21 08:12:54;;;;;;;9.23;3.20;;;21.80;99.90;;;;;;5073383;28;20028;-66
2023/08/21 08:15:20;;;;;;;5.63;2.30;;;21.90;99.90;;;;;;5073072;28;20094;-66
2023/08/21 08:17:46;;;;;;;8.63;3.55;;;22.00;99.90;;;;;;5055324;28;20445;-66
2023/08/21 08:20:12;;;;;;;6.43;2.20;;;22.10;99.90;;;;;;5055690;28;20052;-66
2023/08/21 08:22:39;;;;;;;7.55;2.58;;;22.10;99.90;;;;;;5072707;28;20375;-66
2023/08/21 08:25:06;;;;;;;5.75;2.13;;;22.00;99.90;;;;;;5073192;28;20055;-66
2023/08/21 08:27:32;;;;;;;4.80;1.80;;;22.10;99.90;;;;;;5055292;28;20041;-66
2023/08/21 08:29:58;;;;;;;4.35;1.83;;;22.20;99.90;;;;;;5055574;28;20044;-66
2023/08/21 08:32:25;;;;;;;4.00;1.63;;;22.30;99.90;;;;;;5073116;28;20048;-66
2023/08/21 08:34:50;;;;;;;5.82;1.80;;;22.40;99.90;;;;;;5072673;28;20043;-66
2023/08/21 08:37:16;;;;;;;6.95;2.00;;;22.40;99.90;;;;;;5072794;28;20040;-66
2023/08/21 08:39:41;;;;;;;7.53;1.75;;;22.60;99.90;;;;;;5073197;28;20044;-66
2023/08/21 08:42:08;;;;;;;4.15;1.90;;;22.70;99.90;;;;;;5054028;28;20123;-66
2023/08/21 08:44:38;;;;;;;6.25;2.38;;;22.90;99.90;;;;;;5072666;28;20044;-66
2023/08/21 08:47:04;;;;;;;5.97;2.20;;;23.00;99.90;;;;;;5072497;28;20122;-66
2023/08/21 08:49:31;;;;;;;5.20;1.83;;;23.00;99.90;;;;;;5072867;28;20125;-66
2023/08/21 08:51:58;;;;;;;4.88;1.75;;;23.10;99.90;;;;;;5054653;28;20486;-66
2023/08/21 08:54:25;;;;;;;3.92;1.30;;;23.20;99.90;;;;;;5072635;28;20121;-66
2023/08/21 08:56:51;;;;;;;6.53;1.85;;;23.20;99.90;;;;;;5055019;28;20379;-66
2023/08/21 08:59:17;;;;;;;2.75;1.52;;;23.30;99.90;;;;;;5072631;28;20040;-66
2023/08/21 09:01:43;;;;;;;6.95;1.40;;;23.40;99.90;;;;;;5072487;28;20048;-66
2023/08/21 09:04:09;;;;;;;7.35;1.58;;;23.50;99.90;;;;;;5072154;28;20036;-66
2023/08/21 09:06:36;;;;;;;3.30;1.35;;;23.50;99.90;;;;;;5071596;28;20090;-66
2023/08/21 09:09:02;;;;;;;3.63;1.35;;;23.50;99.90;;;;;;5054466;28;20486;-66
2023/08/21 09:11:28;;;;;;;3.60;1.13;;;23.60;99.90;;;;;;5072392;28;20032;-66
2023/08/21 09:13:54;;;;;;;4.97;1.70;;;23.60;99.90;;;;;;5072026;28;20792;-67
2023/08/21 09:16:24;;;;;;;6.90;1.65;;;23.70;99.90;;;;;;5053981;28;20044;-66
2023/08/21 09:18:58;;;;;;;2.85;1.10;;;23.70;99.90;;;;;;5071997;28;20036;-66
2023/08/21 09:21:25;;;;;;;3.35;1.27;;;23.80;99.90;;;;;;5072237;28;20044;-66
2023/08/21 09:23:58;;;;;;;6.28;1.42;;;23.90;99.90;;;;;;5072179;28;20040;-66
2023/08/21 09:26:24;;;;;;;3.55;1.25;;;23.90;99.90;;;;;;5054477;28;20041;-66
2023/08/21 09:28:51;;;;;;;3.78;0.93;;;23.70;99.90;;;;;;5072169;28;20036;-66
2023/08/21 09:31:30;;;;;;;4.43;1.25;;;23.60;99.90;;;;;;5054133;28;20048;-66
2023/08/21 09:33:57;;;;;;;4.15;1.00;;;23.60;99.90;;;;;;5071861;28;20037;-67
2023/08/21 09:36:24;;;;;;;3.42;1.17;;;23.60;99.90;;;;;;5072086;28;20044;-67
2023/08/21 09:38:51;;;;;;;6.78;1.70;;;23.60;99.90;;;;;;5072485;28;20044;-66
2023/08/21 09:41:20;;;;;;;4.88;1.50;;;23.80;99.90;;;;;;5071420;28;20068;-66
2023/08/21 09:43:45;;;;;;;4.50;1.40;;;24.00;99.90;;;;;;5071366;28;20413;-66
2023/08/21 09:46:16;;;;;;;3.65;1.25;;;24.10;99.90;;;;;;5071547;28;20042;-67
2023/08/21 09:48:44;;;;;;;4.10;1.30;;;24.30;99.90;;;;;;5071660;28;20042;-66
2023/08/21 09:51:11;;;;;;;3.20;1.10;;;24.40;99.90;;;;;;5071907;28;20111;-66
2023/08/21 09:53:37;;;;;;;3.90;1.50;;;24.50;99.90;;;;;;5071361;28;20043;-66
2023/08/21 09:56:03;;;;;;;4.28;1.45;;;24.60;99.90;;;;;;5053825;28;20071;-67
2023/08/21 09:58:29;;;;;;;4.63;1.60;;;24.70;99.90;;;;;;5053272;28;20502;-66
2023/08/21 10:00:57;;;;;;;4.68;1.27;;;24.80;99.90;;;;;;5071929;28;20128;-67
2023/08/21 10:03:24;;;;;;;3.72;1.38;;;24.90;99.90;;;;;;5036663;28;20040;-67
2023/08/21 10:05:51;;;;;;;6.63;1.30;;;25.00;99.90;;;;;;5053286;28;20047;-66
2023/08/21 10:08:23;;;;;;;2.90;0.90;;;25.10;99.90;;;;;;5071372;28;20081;-66
2023/08/21 10:10:49;;;;;;;3.45;1.33;;;25.20;99.90;;;;;;5071747;28;20115;-66
2023/08/21 10:13:15;;;;;;;4.57;1.00;;;25.20;99.90;;;;;;5053486;28;20521;-67
2023/08/21 10:15:42;;;;;;;4.63;0.90;;;25.10;99.90;;;;;;5053802;28;20076;-67
2023/08/21 10:18:24;;;;;;;3.92;1.08;;;25.10;99.90;;;;;;5071677;28;20051;-67
2023/08/21 10:20:51;;;;;;;3.30;0.90;;;25.20;99.90;;;;;;5071690;28;20040;-66
2023/08/21 10:23:45;;;;;;;1.95;0.70;;;25.20;99.90;;;;;;5071382;28;20089;-67
2023/08/21 10:26:11;;;;;;;2.95;0.95;;;25.20;99.90;;;;;;5069139;28;20057;-67
2023/08/21 10:28:59;;;;;;;2.78;1.00;;;25.30;99.90;;;;;;5071665;28;20074;-67
2023/08/21 10:31:38;;;;;;;3.75;1.13;;;25.40;99.90;;;;;;5053092;28;20040;-67
2023/08/21 10:34:06;;;;;;;2.10;1.13;;;25.50;99.90;;;;;;5071072;28;20036;-67
2023/08/21 10:36:44;;;;;;;5.72;1.35;;;25.50;99.90;;;;;;5053310;28;20044;-67
2023/08/21 10:39:25;;;;;;;4.55;1.45;;;25.60;99.90;;;;;;5071062;28;20083;-66
2023/08/21 10:42:02;;;;;;;3.75;1.30;;;25.60;99.90;;;;;;5053354;28;20047;-67
2023/08/21 10:44:59;;;;;;;4.47;1.48;;;25.60;99.90;;;;;;5070574;28;20098;-66
2023/08/21 10:47:27;;;;;;;4.70;1.20;;;25.80;99.90;;;;;;5052727;28;20486;-66
2023/08/21 10:49:58;;;;;;;2.70;1.38;;;25.90;99.90;;;;;;5071181;28;20064;-67
2023/08/21 10:52:25;;;;;;;;;;;25.90;99.90;;;;;;5071569;28;20558;-67
2023/08/21 10:54:53;;;;;;;3.92;0.98;;;25.90;99.90;;;;;;5070338;28;19962;-67
2023/08/21 10:57:19;;;;;;;2.75;1.20;;;26.00;99.90;;;;;;5036760;28;20051;-67
2023/08/21 10:59:57;;;;;;;3.80;1.10;;;26.00;99.90;;;;;;5071051;28;20121;-67
2023/08/21 11:02:25;;;;;;;4.05;1.38;;;26.10;99.40;;;;;;5071145;28;20049;-67
2023/08/21 11:04:51;;;;;;;3.97;0.95;;;26.10;98.90;;;;;;5070899;28;20040;-66
2023/08/21 11:07:17;;;;;;;4.13;1.10;;;26.10;97.10;;;;;;5070910;28;20083;-66
2023/08/21 11:09:44;;;;;;;1.77;1.00;;;26.20;96.30;;;;;;5053196;28;20075;-67
2023/08/21 11:12:13;;;;;;;5.40;1.05;;;26.20;97.40;;;;;;5070916;28;20068;-67
2023/08/21 11:14:39;;;;;;;2.80;1.00;;;26.30;97.10;;;;;;5072216;28;20047;-67
2023/08/21 11:17:06;;;;;;;2.17;1.00;;;26.40;96.50;;;;;;5074730;28;20051;-67
2023/08/21 11:19:33;;;;;;;4.45;1.20;;;26.40;96.10;;;;;;5074178;28;20082;-67
2023/08/21 11:22:03;;;;;;;2.38;0.98;;;26.50;96.70;;;;;;5074301;28;20051;-67
2023/08/21 11:24:39;;;;;;;3.58;1.00;;;26.50;96.20;;;;;;5074134;28;20068;-67
2023/08/21 11:27:05;;;;;;;5.03;1.13;;;26.60;96.10;;;;;;5074709;28;20086;-67
2023/08/21 11:29:38;;;;;;;3.03;1.60;;;26.60;95.30;;;;;;5073929;28;20440;-67
2023/08/21 11:32:10;;;;;;;3.28;1.00;;;26.70;94.70;;;;;;5074127;28;20032;-67
2023/08/21 11:34:37;;;;;;;3.95;1.00;;;26.60;95.20;;;;;;5055665;28;20040;-67
2023/08/21 11:37:04;;;;;;;4.72;1.10;;;26.60;96.00;;;;;;5056276;28;20083;-67
2023/08/21 11:39:50;;;;;;;4.57;1.10;;;26.50;95.10;;;;;;5074200;28;20091;-67
2023/08/21 11:42:16;;;;;;;3.78;1.00;;;26.50;93.60;;;;;;5073980;28;20036;-67
2023/08/21 11:44:45;;;;;;;1.85;0.80;;;26.50;94.10;;;;;;5073532;28;20040;-67
2023/08/21 11:47:13;;;;;;;4.03;1.30;;;26.60;94.10;;;;;;5073909;28;20040;-67
2023/08/21 11:49:42;;;;;;;1.48;0.80;;;26.60;94.50;;;;;;5074187;28;20502;-66
2023/08/21 11:52:09;;;;;;;5.57;1.25;;;26.70;93.60;;;;;;5056299;28;20074;-67
2023/08/21 11:54:36;;;;;;;2.78;0.95;;;26.70;92.80;;;;;;5073305;28;20040;-67
2023/08/21 11:57:12;;;;;;;2.55;0.95;;;26.70;92.90;;;;;;5055745;28;20048;-67
2023/08/21 11:59:38;;;;;;;4.40;1.25;;;26.80;93.10;;;;;;5055573;28;20048;-67
2023/08/21 12:02:25;;;;;;;4.63;1.20;;;26.90;94.80;;;;;;5073292;28;20101;-67
2023/08/21 12:05:13;;;;;;;2.92;1.17;;;26.90;93.90;;;;;;5073065;28;20047;-67
2023/08/21 12:07:38;;;;;;;4.35;1.13;;;26.90;93.90;;;;;;5073529;28;20047;-66
2023/08/21 12:10:05;;;;;;;2.50;1.15;;;26.70;94.00;;;;;;5055994;28;20044;-67
2023/08/21 12:12:30;;;;;;;2.83;1.10;;;26.40;94.00;;;;;;5073602;28;20064;-67
2023/08/21 12:14:56;;;;;;;3.70;1.52;;;26.30;95.10;;;;;;5073314;28;20068;-66
2023/08/21 12:17:22;;;;;;;2.97;1.55;;;26.10;95.80;;;;;;5073527;28;20114;-67
2023/08/21 12:19:48;;;;;;;4.18;1.38;;;26.00;95.20;;;;;;5073335;28;20087;-66
2023/08/21 12:22:13;;;;;;;3.17;1.60;;;25.90;95.80;;;;;;5073272;28;20402;-66
2023/08/21 12:24:39;;;;;;;3.05;1.02;;;26.00;97.10;;;;;;5072689;28;20036;-66
2023/08/21 12:27:06;;;;;;;2.15;1.02;;;26.10;96.60;;;;;;5073278;28;20041;-67
2023/08/21 12:29:32;;;;;;;2.38;1.00;;;26.30;94.90;;;;;;5073376;28;20048;-66
2023/08/21 12:31:58;;;;;;;2.13;0.90;;;26.30;93.30;;;;;;5055231;28;20033;-67
2023/08/21 12:34:23;;;;;;;2.22;0.90;;;26.40;92.80;;;;;;5072859;28;20158;-66
2023/08/21 12:36:52;;;;;;;5.32;1.00;;;26.60;93.90;;;;;;5072812;28;20401;-67
2023/08/21 12:39:18;;;;;;;2.72;1.17;;;26.60;91.80;;;;;;5073274;28;20043;-67
2023/08/21 12:41:43;;;;;;;3.67;1.23;;;26.70;91.90;;;;;;5085084;22;20048;-67
2023/08/21 12:44:09;;;;;;;6.25;1.13;;;26.80;92.30;;;;;;5071481;28;20036;-67
2023/08/21 12:46:36;;;;;;;3.58;1.33;;;26.80;91.20;;;;;;5072758;28;20044;-67
2023/08/21 12:49:02;;;;;;;5.50;1.23;;;26.90;92.00;;;;;;5072876;28;20040;-67